sensor_id;sensor_type;location;lat;lon;timestamp;temperature;humidity
43651;DHT22;29247;50.944;5.382;2023-04-15T00:01:24;9.20;73.10
43651;DHT22;29247;50.944;5.382;2023-04-15T00:03:55;9.20;73.40
43651;DHT22;29247;50.944;5.382;2023-04-15T00:06:21;9.20;73.50
43651;DHT22;29247;50.944;5.382;2023-04-15T00:08:48;9.20;73.50
43651;DHT22;29247;50.944;5.382;2023-04-15T00:11:15;9.20;73.20
43651;DHT22;29247;50.944;5.382;2023-04-15T00:13:43;9.20;73.20
43651;DHT22;29247;50.944;5.382;2023-04-15T00:16:10;9.20;73.50
43651;DHT22;29247;50.944;5.382;2023-04-15T00:18:36;9.20;73.60
43651;DHT22;29247;50.944;5.382;2023-04-15T00:21:03;9.20;73.60
43651;DHT22;29247;50.944;5.382;2023-04-15T00:23:31;9.20;73.70
43651;DHT22;29247;50.944;5.382;2023-04-15T00:25:56;9.20;73.70
43651;DHT22;29247;50.944;5.382;2023-04-15T00:28:22;9.20;73.30
43651;DHT22;29247;50.944;5.382;2023-04-15T00:30:48;9.20;73.30
43651;DHT22;29247;50.944;5.382;2023-04-15T00:33:14;9.10;73.40
43651;DHT22;29247;50.944;5.382;2023-04-15T00:35:41;9.20;73.60
43651;DHT22;29247;50.944;5.382;2023-04-15T00:38:09;9.20;73.60
43651;DHT22;29247;50.944;5.382;2023-04-15T00:40:35;9.20;73.40
43651;DHT22;29247;50.944;5.382;2023-04-15T00:43:01;9.20;73.30
43651;DHT22;29247;50.944;5.382;2023-04-15T00:45:29;9.20;73.40
43651;DHT22;29247;50.944;5.382;2023-04-15T00:47:55;9.20;73.40
43651;DHT22;29247;50.944;5.382;2023-04-15T00:50:21;9.20;73.30
43651;DHT22;29247;50.944;5.382;2023-04-15T00:52:47;9.20;73.40
43651;DHT22;29247;50.944;5.382;2023-04-15T00:55:15;9.20;73.30
43651;DHT22;29247;50.944;5.382;2023-04-15T00:57:46;9.20;73.40
43651;DHT22;29247;50.944;5.382;2023-04-15T01:00:12;9.20;73.40
43651;DHT22;29247;50.944;5.382;2023-04-15T01:02:37;9.20;73.50
43651;DHT22;29247;50.944;5.382;2023-04-15T01:05:06;9.20;73.60
43651;DHT22;29247;50.944;5.382;2023-04-15T01:07:35;9.30;73.80
43651;DHT22;29247;50.944;5.382;2023-04-15T01:10:02;9.30;73.90
43651;DHT22;29247;50.944;5.382;2023-04-15T01:12:31;9.30;73.90
43651;DHT22;29247;50.944;5.382;2023-04-15T01:14:58;9.30;74.00
43651;DHT22;29247;50.944;5.382;2023-04-15T01:17:24;9.40;74.20
43651;DHT22;29247;50.944;5.382;2023-04-15T01:19:50;9.40;74.20
43651;DHT22;29247;50.944;5.382;2023-04-15T01:22:19;9.40;74.20
43651;DHT22;29247;50.944;5.382;2023-04-15T01:25:00;9.40;74.00
43651;DHT22;29247;50.944;5.382;2023-04-15T01:27:26;9.40;73.90
43651;DHT22;29247;50.944;5.382;2023-04-15T01:29:52;9.40;73.70
43651;DHT22;29247;50.944;5.382;2023-04-15T01:32:18;9.50;73.90
43651;DHT22;29247;50.944;5.382;2023-04-15T01:34:44;9.50;73.90
43651;DHT22;29247;50.944;5.382;2023-04-15T01:37:10;9.50;73.90
43651;DHT22;29247;50.944;5.382;2023-04-15T01:39:36;9.50;73.90
43651;DHT22;29247;50.944;5.382;2023-04-15T01:42:01;9.60;73.80
43651;DHT22;29247;50.944;5.382;2023-04-15T01:44:31;9.60;73.80
43651;DHT22;29247;50.944;5.382;2023-04-15T01:46:56;9.60;73.60
43651;DHT22;29247;50.944;5.382;2023-04-15T01:49:25;9.60;73.60
43651;DHT22;29247;50.944;5.382;2023-04-15T01:51:50;9.60;73.60
43651;DHT22;29247;50.944;5.382;2023-04-15T01:54:16;9.60;73.60
43651;DHT22;29247;50.944;5.382;2023-04-15T01:56:45;9.60;73.60
43651;DHT22;29247;50.944;5.382;2023-04-15T01:59:13;9.60;73.50
43651;DHT22;29247;50.944;5.382;2023-04-15T02:01:43;9.60;73.60
43651;DHT22;29247;50.944;5.382;2023-04-15T02:04:10;9.60;73.70
43651;DHT22;29247;50.944;5.382;2023-04-15T02:06:41;9.70;73.80
43651;DHT22;29247;50.944;5.382;2023-04-15T02:09:10;9.60;73.90
43651;DHT22;29247;50.944;5.382;2023-04-15T02:11:36;9.60;74.30
43651;DHT22;29247;50.944;5.382;2023-04-15T02:14:04;9.70;74.30
43651;DHT22;29247;50.944;5.382;2023-04-15T02:16:31;9.70;74.40
43651;DHT22;29247;50.944;5.382;2023-04-15T02:18:58;9.70;74.40
43651;DHT22;29247;50.944;5.382;2023-04-15T02:21:29;9.70;74.50
43651;DHT22;29247;50.944;5.382;2023-04-15T02:23:57;9.70;74.60
43651;DHT22;29247;50.944;5.382;2023-04-15T02:26:23;9.70;74.70
43651;DHT22;29247;50.944;5.382;2023-04-15T02:28:52;9.70;74.70
43651;DHT22;29247;50.944;5.382;2023-04-15T02:31:17;9.70;74.70
43651;DHT22;29247;50.944;5.382;2023-04-15T02:33:44;9.60;74.70
43651;DHT22;29247;50.944;5.382;2023-04-15T02:36:12;9.60;74.60
43651;DHT22;29247;50.944;5.382;2023-04-15T02:38:38;9.70;74.80
43651;DHT22;29247;50.944;5.382;2023-04-15T02:41:08;9.60;74.60
43651;DHT22;29247;50.944;5.382;2023-04-15T02:43:37;9.60;74.60
43651;DHT22;29247;50.944;5.382;2023-04-15T02:46:06;9.70;74.80
43651;DHT22;29247;50.944;5.382;2023-04-15T02:48:32;9.70;74.80
43651;DHT22;29247;50.944;5.382;2023-04-15T02:51:24;9.70;74.70
43651;DHT22;29247;50.944;5.382;2023-04-15T02:53:50;9.70;74.90
43651;DHT22;29247;50.944;5.382;2023-04-15T02:56:16;9.70;74.70
43651;DHT22;29247;50.944;5.382;2023-04-15T02:58:44;9.70;74.70
43651;DHT22;29247;50.944;5.382;2023-04-15T03:01:10;9.70;74.80
43651;DHT22;29247;50.944;5.382;2023-04-15T03:03:36;9.70;74.80
43651;DHT22;29247;50.944;5.382;2023-04-15T03:06:04;9.60;74.60
43651;DHT22;29247;50.944;5.382;2023-04-15T03:08:30;9.70;74.60
43651;DHT22;29247;50.944;5.382;2023-04-15T03:10:57;9.60;74.60
43651;DHT22;29247;50.944;5.382;2023-04-15T03:13:25;9.60;74.60
43651;DHT22;29247;50.944;5.382;2023-04-15T03:15:50;9.60;74.60
43651;DHT22;29247;50.944;5.382;2023-04-15T03:18:19;9.60;74.80
43651;DHT22;29247;50.944;5.382;2023-04-15T03:20:45;9.60;75.00
43651;DHT22;29247;50.944;5.382;2023-04-15T03:23:11;9.60;75.00
43651;DHT22;29247;50.944;5.382;2023-04-15T03:25:36;9.60;75.00
43651;DHT22;29247;50.944;5.382;2023-04-15T03:28:04;9.60;75.00
43651;DHT22;29247;50.944;5.382;2023-04-15T03:30:30;9.60;75.10
43651;DHT22;29247;50.944;5.382;2023-04-15T03:32:56;9.60;75.10
43651;DHT22;29247;50.944;5.382;2023-04-15T03:38:31;9.60;75.30
43651;DHT22;29247;50.944;5.382;2023-04-15T03:40:57;9.60;75.20
43651;DHT22;29247;50.944;5.382;2023-04-15T03:43:22;9.60;75.20
43651;DHT22;29247;50.944;5.382;2023-04-15T03:45:48;9.60;75.30
43651;DHT22;29247;50.944;5.382;2023-04-15T03:48:13;9.60;75.30
43651;DHT22;29247;50.944;5.382;2023-04-15T03:50:39;9.60;75.30
43651;DHT22;29247;50.944;5.382;2023-04-15T03:53:07;9.60;75.40
43651;DHT22;29247;50.944;5.382;2023-04-15T03:55:33;9.60;75.50
43651;DHT22;29247;50.944;5.382;2023-04-15T03:57:59;9.60;75.60
43651;DHT22;29247;50.944;5.382;2023-04-15T04:00:27;9.60;75.70
43651;DHT22;29247;50.944;5.382;2023-04-15T04:02:53;9.60;75.80
43651;DHT22;29247;50.944;5.382;2023-04-15T04:05:21;9.60;75.90
43651;DHT22;29247;50.944;5.382;2023-04-15T04:07:48;9.60;75.90
43651;DHT22;29247;50.944;5.382;2023-04-15T04:10:15;9.60;75.90
43651;DHT22;29247;50.944;5.382;2023-04-15T04:12:42;9.60;75.80
43651;DHT22;29247;50.944;5.382;2023-04-15T04:15:11;9.60;75.80
43651;DHT22;29247;50.944;5.382;2023-04-15T04:17:40;9.60;75.70
43651;DHT22;29247;50.944;5.382;2023-04-15T04:20:09;9.60;75.80
43651;DHT22;29247;50.944;5.382;2023-04-15T04:22:38;9.60;76.00
43651;DHT22;29247;50.944;5.382;2023-04-15T04:25:07;9.50;76.40
43651;DHT22;29247;50.944;5.382;2023-04-15T04:27:34;9.60;76.50
43651;DHT22;29247;50.944;5.382;2023-04-15T04:30:04;9.60;76.70
43651;DHT22;29247;50.944;5.382;2023-04-15T04:32:29;9.60;76.70
43651;DHT22;29247;50.944;5.382;2023-04-15T04:34:55;9.60;76.50
43651;DHT22;29247;50.944;5.382;2023-04-15T04:37:21;9.60;76.50
43651;DHT22;29247;50.944;5.382;2023-04-15T04:39:47;9.50;76.50
43651;DHT22;29247;50.944;5.382;2023-04-15T04:42:13;9.50;76.50
43651;DHT22;29247;50.944;5.382;2023-04-15T04:44:41;9.50;76.40
43651;DHT22;29247;50.944;5.382;2023-04-15T04:47:07;9.50;76.40
43651;DHT22;29247;50.944;5.382;2023-04-15T04:49:33;9.50;76.40
43651;DHT22;29247;50.944;5.382;2023-04-15T04:52:01;9.50;76.30
43651;DHT22;29247;50.944;5.382;2023-04-15T04:54:29;9.50;76.30
43651;DHT22;29247;50.944;5.382;2023-04-15T04:57:00;9.50;76.40
43651;DHT22;29247;50.944;5.382;2023-04-15T04:59:28;9.50;76.40
43651;DHT22;29247;50.944;5.382;2023-04-15T05:01:53;9.60;76.50
43651;DHT22;29247;50.944;5.382;2023-04-15T05:04:19;9.50;76.40
43651;DHT22;29247;50.944;5.382;2023-04-15T05:06:45;9.60;76.50
43651;DHT22;29247;50.944;5.382;2023-04-15T05:09:13;9.60;76.30
43651;DHT22;29247;50.944;5.382;2023-04-15T05:11:41;9.60;76.20
43651;DHT22;29247;50.944;5.382;2023-04-15T05:14:06;9.60;76.10
43651;DHT22;29247;50.944;5.382;2023-04-15T05:16:32;9.60;76.00
43651;DHT22;29247;50.944;5.382;2023-04-15T05:18:58;9.60;76.00
43651;DHT22;29247;50.944;5.382;2023-04-15T05:21:26;9.60;76.20
43651;DHT22;29247;50.944;5.382;2023-04-15T05:23:52;9.60;76.40
43651;DHT22;29247;50.944;5.382;2023-04-15T05:26:20;9.60;76.40
43651;DHT22;29247;50.944;5.382;2023-04-15T05:28:46;9.60;76.30
43651;DHT22;29247;50.944;5.382;2023-04-15T05:31:12;9.60;76.00
43651;DHT22;29247;50.944;5.382;2023-04-15T05:33:38;9.60;75.60
43651;DHT22;29247;50.944;5.382;2023-04-15T05:36:05;9.60;75.30
43651;DHT22;29247;50.944;5.382;2023-04-15T05:38:30;9.70;75.10
43651;DHT22;29247;50.944;5.382;2023-04-15T05:40:56;9.70;75.00
43651;DHT22;29247;50.944;5.382;2023-04-15T05:43:24;9.70;74.90
43651;DHT22;29247;50.944;5.382;2023-04-15T05:45:49;9.80;75.20
43651;DHT22;29247;50.944;5.382;2023-04-15T05:48:15;9.80;75.90
43651;DHT22;29247;50.944;5.382;2023-04-15T05:50:41;9.90;75.00
43651;DHT22;29247;50.944;5.382;2023-04-15T05:53:07;9.90;74.80
43651;DHT22;29247;50.944;5.382;2023-04-15T05:55:33;9.90;74.60
43651;DHT22;29247;50.944;5.382;2023-04-15T05:58:01;9.90;74.30
43651;DHT22;29247;50.944;5.382;2023-04-15T06:00:30;10.00;74.30
43651;DHT22;29247;50.944;5.382;2023-04-15T06:02:56;10.00;74.10
43651;DHT22;29247;50.944;5.382;2023-04-15T06:05:24;10.00;74.00
43651;DHT22;29247;50.944;5.382;2023-04-15T06:07:50;10.00;73.80
43651;DHT22;29247;50.944;5.382;2023-04-15T06:10:16;10.10;73.60
43651;DHT22;29247;50.944;5.382;2023-04-15T06:12:42;10.00;73.20
43651;DHT22;29247;50.944;5.382;2023-04-15T06:15:08;10.10;73.00
43651;DHT22;29247;50.944;5.382;2023-04-15T06:17:35;10.10;72.80
43651;DHT22;29247;50.944;5.382;2023-04-15T06:20:04;10.20;72.50
43651;DHT22;29247;50.944;5.382;2023-04-15T06:22:30;10.20;72.40
43651;DHT22;29247;50.944;5.382;2023-04-15T06:24:58;10.30;71.90
43651;DHT22;29247;50.944;5.382;2023-04-15T06:27:28;10.30;71.50
43651;DHT22;29247;50.944;5.382;2023-04-15T06:29:56;10.40;71.50
43651;DHT22;29247;50.944;5.382;2023-04-15T06:32:21;10.50;70.70
43651;DHT22;29247;50.944;5.382;2023-04-15T06:34:52;10.50;70.20
43651;DHT22;29247;50.944;5.382;2023-04-15T06:37:20;10.60;70.10
43651;DHT22;29247;50.944;5.382;2023-04-15T06:39:45;10.70;69.70
43651;DHT22;29247;50.944;5.382;2023-04-15T06:42:13;10.70;69.40
43651;DHT22;29247;50.944;5.382;2023-04-15T06:44:41;10.80;69.00
43651;DHT22;29247;50.944;5.382;2023-04-15T06:47:07;10.90;68.60
43651;DHT22;29247;50.944;5.382;2023-04-15T06:49:33;10.90;68.30
43651;DHT22;29247;50.944;5.382;2023-04-15T06:52:04;11.00;68.20
43651;DHT22;29247;50.944;5.382;2023-04-15T06:54:32;11.00;68.00
43651;DHT22;29247;50.944;5.382;2023-04-15T06:56:58;11.10;68.10
43651;DHT22;29247;50.944;5.382;2023-04-15T06:59:23;11.20;67.10
43651;DHT22;29247;50.944;5.382;2023-04-15T07:01:52;11.20;66.80
43651;DHT22;29247;50.944;5.382;2023-04-15T07:04:18;11.30;66.70
43651;DHT22;29247;50.944;5.382;2023-04-15T07:06:47;11.30;66.20
43651;DHT22;29247;50.944;5.382;2023-04-15T07:09:16;11.40;65.70
43651;DHT22;29247;50.944;5.382;2023-04-15T07:11:44;11.50;65.60
43651;DHT22;29247;50.944;5.382;2023-04-15T07:14:12;11.50;65.20
43651;DHT22;29247;50.944;5.382;2023-04-15T07:16:38;11.50;65.00
43651;DHT22;29247;50.944;5.382;2023-04-15T07:19:06;11.60;64.80
43651;DHT22;29247;50.944;5.382;2023-04-15T07:21:32;11.60;64.60
43651;DHT22;29247;50.944;5.382;2023-04-15T07:24:01;11.60;64.10
43651;DHT22;29247;50.944;5.382;2023-04-15T07:26:27;11.70;64.20
43651;DHT22;29247;50.944;5.382;2023-04-15T07:28:53;11.70;64.30
43651;DHT22;29247;50.944;5.382;2023-04-15T07:31:19;11.90;64.10
43651;DHT22;29247;50.944;5.382;2023-04-15T07:33:45;12.00;63.70
43651;DHT22;29247;50.944;5.382;2023-04-15T07:36:13;12.20;63.40
43651;DHT22;29247;50.944;5.382;2023-04-15T07:38:39;12.30;63.30
43651;DHT22;29247;50.944;5.382;2023-04-15T07:41:08;12.60;63.30
43651;DHT22;29247;50.944;5.382;2023-04-15T07:43:34;12.90;62.70
43651;DHT22;29247;50.944;5.382;2023-04-15T07:46:00;13.20;62.20
43651;DHT22;29247;50.944;5.382;2023-04-15T07:48:26;13.60;61.30
43651;DHT22;29247;50.944;5.382;2023-04-15T07:50:53;13.90;60.40
43651;DHT22;29247;50.944;5.382;2023-04-15T07:53:19;14.30;59.40
43651;DHT22;29247;50.944;5.382;2023-04-15T07:55:47;14.60;58.80
43651;DHT22;29247;50.944;5.382;2023-04-15T07:58:13;14.90;57.80
43651;DHT22;29247;50.944;5.382;2023-04-15T08:00:41;15.20;57.20
43651;DHT22;29247;50.944;5.382;2023-04-15T08:03:07;15.40;56.50
43651;DHT22;29247;50.944;5.382;2023-04-15T08:05:36;15.80;56.10
43651;DHT22;29247;50.944;5.382;2023-04-15T08:08:01;16.00;55.60
43651;DHT22;29247;50.944;5.382;2023-04-15T08:10:28;16.40;54.50
43651;DHT22;29247;50.944;5.382;2023-04-15T08:12:54;16.50;53.30
43651;DHT22;29247;50.944;5.382;2023-04-15T08:15:20;16.70;53.30
43651;DHT22;29247;50.944;5.382;2023-04-15T08:17:47;16.90;53.10
43651;DHT22;29247;50.944;5.382;2023-04-15T08:20:12;16.90;52.10
43651;DHT22;29247;50.944;5.382;2023-04-15T08:22:43;17.10;52.50
43651;DHT22;29247;50.944;5.382;2023-04-15T08:25:11;17.20;52.30
43651;DHT22;29247;50.944;5.382;2023-04-15T08:27:39;17.20;51.60
43651;DHT22;29247;50.944;5.382;2023-04-15T08:30:05;17.10;51.40
43651;DHT22;29247;50.944;5.382;2023-04-15T08:32:32;17.00;51.00
43651;DHT22;29247;50.944;5.382;2023-04-15T08:34:58;17.00;51.80
43651;DHT22;29247;50.944;5.382;2023-04-15T08:37:25;16.90;51.30
43651;DHT22;29247;50.944;5.382;2023-04-15T08:39:51;16.70;52.10
43651;DHT22;29247;50.944;5.382;2023-04-15T08:42:21;16.60;52.30
43651;DHT22;29247;50.944;5.382;2023-04-15T08:44:49;16.50;52.50
43651;DHT22;29247;50.944;5.382;2023-04-15T08:47:19;16.50;53.10
43651;DHT22;29247;50.944;5.382;2023-04-15T08:49:49;16.50;52.90
43651;DHT22;29247;50.944;5.382;2023-04-15T08:52:18;16.60;53.20
43651;DHT22;29247;50.944;5.382;2023-04-15T08:54:47;16.60;52.90
43651;DHT22;29247;50.944;5.382;2023-04-15T08:57:18;16.70;53.50
43651;DHT22;29247;50.944;5.382;2023-04-15T08:59:44;16.80;53.60
43651;DHT22;29247;50.944;5.382;2023-04-15T09:02:11;16.80;53.10
43651;DHT22;29247;50.944;5.382;2023-04-15T09:04:37;16.80;53.20
43651;DHT22;29247;50.944;5.382;2023-04-15T09:07:03;16.80;52.90
43651;DHT22;29247;50.944;5.382;2023-04-15T09:09:29;16.80;52.90
43651;DHT22;29247;50.944;5.382;2023-04-15T09:11:54;16.80;52.30
43651;DHT22;29247;50.944;5.382;2023-04-15T09:14:21;16.80;52.50
43651;DHT22;29247;50.944;5.382;2023-04-15T09:17:01;16.80;52.30
43651;DHT22;29247;50.944;5.382;2023-04-15T09:19:28;16.80;52.30
43651;DHT22;29247;50.944;5.382;2023-04-15T09:21:57;16.80;52.30
43651;DHT22;29247;50.944;5.382;2023-04-15T09:24:23;16.80;51.40
43651;DHT22;29247;50.944;5.382;2023-04-15T09:26:53;16.80;51.40
43651;DHT22;29247;50.944;5.382;2023-04-15T09:29:25;16.80;51.90
43651;DHT22;29247;50.944;5.382;2023-04-15T09:31:53;16.90;52.70
43651;DHT22;29247;50.944;5.382;2023-04-15T09:34:21;17.00;52.20
43651;DHT22;29247;50.944;5.382;2023-04-15T09:36:59;17.10;52.10
43651;DHT22;29247;50.944;5.382;2023-04-15T09:39:52;17.00;51.30
43651;DHT22;29247;50.944;5.382;2023-04-15T09:42:20;17.00;50.70
43651;DHT22;29247;50.944;5.382;2023-04-15T09:44:49;17.00;50.70
43651;DHT22;29247;50.944;5.382;2023-04-15T09:47:31;17.00;51.00
43651;DHT22;29247;50.944;5.382;2023-04-15T09:49:59;17.10;51.10
43651;DHT22;29247;50.944;5.382;2023-04-15T09:52:26;17.10;50.30
43651;DHT22;29247;50.944;5.382;2023-04-15T09:54:56;17.10;49.20
43651;DHT22;29247;50.944;5.382;2023-04-15T09:57:33;17.10;48.50
43651;DHT22;29247;50.944;5.382;2023-04-15T10:00:02;17.00;48.70
43651;DHT22;29247;50.944;5.382;2023-04-15T10:02:31;17.10;49.30
43651;DHT22;29247;50.944;5.382;2023-04-15T10:04:58;17.10;47.20
43651;DHT22;29247;50.944;5.382;2023-04-15T10:07:25;17.20;48.30
43651;DHT22;29247;50.944;5.382;2023-04-15T10:09:52;17.30;48.20
43651;DHT22;29247;50.944;5.382;2023-04-15T10:12:21;17.30;48.00
43651;DHT22;29247;50.944;5.382;2023-04-15T10:14:52;17.30;47.30
43651;DHT22;29247;50.944;5.382;2023-04-15T10:17:26;17.40;47.90
43651;DHT22;29247;50.944;5.382;2023-04-15T10:20:00;17.30;46.30
43651;DHT22;29247;50.944;5.382;2023-04-15T10:22:29;17.30;45.10
43651;DHT22;29247;50.944;5.382;2023-04-15T10:24:58;17.30;45.70
43651;DHT22;29247;50.944;5.382;2023-04-15T10:27:27;17.30;46.80
43651;DHT22;29247;50.944;5.382;2023-04-15T10:29:56;17.30;45.30
43651;DHT22;29247;50.944;5.382;2023-04-15T10:32:23;17.30;44.70
43651;DHT22;29247;50.944;5.382;2023-04-15T10:34:50;17.30;42.80
43651;DHT22;29247;50.944;5.382;2023-04-15T10:37:33;17.20;42.90
43651;DHT22;29247;50.944;5.382;2023-04-15T10:40:31;17.20;44.80
43651;DHT22;29247;50.944;5.382;2023-04-15T10:42:58;17.20;45.30
43651;DHT22;29247;50.944;5.382;2023-04-15T10:45:32;17.10;44.10
43651;DHT22;29247;50.944;5.382;2023-04-15T10:48:01;17.10;45.60
43651;DHT22;29247;50.944;5.382;2023-04-15T10:50:30;17.10;45.40
43651;DHT22;29247;50.944;5.382;2023-04-15T10:52:57;17.00;45.60
43651;DHT22;29247;50.944;5.382;2023-04-15T10:55:25;17.00;45.80
43651;DHT22;29247;50.944;5.382;2023-04-15T10:57:57;16.90;46.30
43651;DHT22;29247;50.944;5.382;2023-04-15T11:00:25;16.90;46.90
43651;DHT22;29247;50.944;5.382;2023-04-15T11:02:56;16.90;48.20
43651;DHT22;29247;50.944;5.382;2023-04-15T11:08:11;17.10;49.00
43651;DHT22;29247;50.944;5.382;2023-04-15T11:13:18;17.30;48.60
43651;DHT22;29247;50.944;5.382;2023-04-15T11:15:47;17.30;48.50
43651;DHT22;29247;50.944;5.382;2023-04-15T11:18:28;17.30;48.40
43651;DHT22;29247;50.944;5.382;2023-04-15T11:20:57;17.40;49.00
43651;DHT22;29247;50.944;5.382;2023-04-15T11:23:32;17.50;48.40
43651;DHT22;29247;50.944;5.382;2023-04-15T11:26:02;17.50;48.80
43651;DHT22;29247;50.944;5.382;2023-04-15T11:28:30;17.60;48.00
43651;DHT22;29247;50.944;5.382;2023-04-15T11:31:02;17.70;47.00
43651;DHT22;29247;50.944;5.382;2023-04-15T11:33:30;17.70;47.30
43651;DHT22;29247;50.944;5.382;2023-04-15T11:35:58;17.70;47.00
43651;DHT22;29247;50.944;5.382;2023-04-15T11:38:26;17.70;46.30
43651;DHT22;29247;50.944;5.382;2023-04-15T11:40:52;17.70;47.00
43651;DHT22;29247;50.944;5.382;2023-04-15T11:43:22;17.80;46.40
43651;DHT22;29247;50.944;5.382;2023-04-15T11:48:20;17.70;44.70
43651;DHT22;29247;50.944;5.382;2023-04-15T11:50:53;17.70;45.50
43651;DHT22;29247;50.944;5.382;2023-04-15T11:53:19;17.70;45.70
43651;DHT22;29247;50.944;5.382;2023-04-15T11:55:51;17.70;45.20
43651;DHT22;29247;50.944;5.382;2023-04-15T11:58:18;17.70;45.40
43651;DHT22;29247;50.944;5.382;2023-04-15T12:00:51;17.80;45.60
43651;DHT22;29247;50.944;5.382;2023-04-15T12:03:30;17.80;46.40
43651;DHT22;29247;50.944;5.382;2023-04-15T12:06:08;17.80;45.10
43651;DHT22;29247;50.944;5.382;2023-04-15T12:09:07;17.80;44.80
43651;DHT22;29247;50.944;5.382;2023-04-15T12:11:34;17.80;45.40
43651;DHT22;29247;50.944;5.382;2023-04-15T12:16:30;17.80;44.50
43651;DHT22;29247;50.944;5.382;2023-04-15T12:18:58;17.70;43.70
43651;DHT22;29247;50.944;5.382;2023-04-15T12:21:26;17.60;42.80
43651;DHT22;29247;50.944;5.382;2023-04-15T12:23:53;17.50;42.20
43651;DHT22;29247;50.944;5.382;2023-04-15T12:26:30;17.60;43.40
43651;DHT22;29247;50.944;5.382;2023-04-15T12:29:10;17.60;43.30
43651;DHT22;29247;50.944;5.382;2023-04-15T12:31:36;17.70;44.30
43651;DHT22;29247;50.944;5.382;2023-04-15T12:34:03;17.90;45.00
43651;DHT22;29247;50.944;5.382;2023-04-15T12:36:34;18.00;45.10
43651;DHT22;29247;50.944;5.382;2023-04-15T12:39:03;18.00;43.60
43651;DHT22;29247;50.944;5.382;2023-04-15T12:41:32;18.00;44.20
43651;DHT22;29247;50.944;5.382;2023-04-15T12:43:58;17.90;42.80
43651;DHT22;29247;50.944;5.382;2023-04-15T12:46:29;17.70;42.70
43651;DHT22;29247;50.944;5.382;2023-04-15T12:48:57;17.70;43.90
43651;DHT22;29247;50.944;5.382;2023-04-15T12:51:22;17.80;43.10
43651;DHT22;29247;50.944;5.382;2023-04-15T12:53:48;17.80;42.60
43651;DHT22;29247;50.944;5.382;2023-04-15T12:56:14;17.70;41.30
43651;DHT22;29247;50.944;5.382;2023-04-15T12:58:41;17.70;41.80
43651;DHT22;29247;50.944;5.382;2023-04-15T13:01:07;17.80;42.30
43651;DHT22;29247;50.944;5.382;2023-04-15T13:03:33;17.80;41.70
43651;DHT22;29247;50.944;5.382;2023-04-15T13:05:59;17.70;41.80
43651;DHT22;29247;50.944;5.382;2023-04-15T13:08:26;17.80;42.70
43651;DHT22;29247;50.944;5.382;2023-04-15T13:10:55;17.80;43.20
43651;DHT22;29247;50.944;5.382;2023-04-15T13:13:23;17.80;43.50
43651;DHT22;29247;50.944;5.382;2023-04-15T13:15:51;17.80;43.20
43651;DHT22;29247;50.944;5.382;2023-04-15T13:18:18;17.80;43.30
43651;DHT22;29247;50.944;5.382;2023-04-15T13:20:44;17.80;43.50
43651;DHT22;29247;50.944;5.382;2023-04-15T13:23:14;17.80;44.20
43651;DHT22;29247;50.944;5.382;2023-04-15T13:25:40;17.90;43.70
43651;DHT22;29247;50.944;5.382;2023-04-15T13:28:06;17.80;43.00
43651;DHT22;29247;50.944;5.382;2023-04-15T13:30:36;17.80;43.20
43651;DHT22;29247;50.944;5.382;2023-04-15T13:33:04;17.80;43.10
43651;DHT22;29247;50.944;5.382;2023-04-15T13:35:31;17.80;43.70
43651;DHT22;29247;50.944;5.382;2023-04-15T13:37:57;17.90;42.60
43651;DHT22;29247;50.944;5.382;2023-04-15T13:40:26;17.80;41.90
43651;DHT22;29247;50.944;5.382;2023-04-15T13:42:54;17.80;42.70
43651;DHT22;29247;50.944;5.382;2023-04-15T13:45:23;17.80;43.40
43651;DHT22;29247;50.944;5.382;2023-04-15T13:47:49;17.80;44.10
43651;DHT22;29247;50.944;5.382;2023-04-15T13:50:17;17.80;43.80
43651;DHT22;29247;50.944;5.382;2023-04-15T13:52:46;17.80;43.90
43651;DHT22;29247;50.944;5.382;2023-04-15T13:55:14;17.70;43.70
43651;DHT22;29247;50.944;5.382;2023-04-15T13:57:42;17.70;44.10
43651;DHT22;29247;50.944;5.382;2023-04-15T14:00:10;17.70;44.50
43651;DHT22;29247;50.944;5.382;2023-04-15T14:02:39;17.80;44.80
43651;DHT22;29247;50.944;5.382;2023-04-15T14:05:08;17.70;43.90
43651;DHT22;29247;50.944;5.382;2023-04-15T14:07:34;17.70;44.70
43651;DHT22;29247;50.944;5.382;2023-04-15T14:10:02;17.70;45.10
43651;DHT22;29247;50.944;5.382;2023-04-15T14:12:28;17.70;45.40
43651;DHT22;29247;50.944;5.382;2023-04-15T14:14:53;17.60;45.30
43651;DHT22;29247;50.944;5.382;2023-04-15T14:17:21;17.70;46.20
43651;DHT22;29247;50.944;5.382;2023-04-15T14:19:47;17.70;45.90
43651;DHT22;29247;50.944;5.382;2023-04-15T14:22:15;17.70;46.00
43651;DHT22;29247;50.944;5.382;2023-04-15T14:24:45;17.60;46.20
43651;DHT22;29247;50.944;5.382;2023-04-15T14:27:14;17.50;46.20
43651;DHT22;29247;50.944;5.382;2023-04-15T14:29:44;17.50;46.50
43651;DHT22;29247;50.944;5.382;2023-04-15T14:32:17;17.60;46.40
43651;DHT22;29247;50.944;5.382;2023-04-15T14:34:45;17.50;46.50
43651;DHT22;29247;50.944;5.382;2023-04-15T14:37:13;17.50;46.50
43651;DHT22;29247;50.944;5.382;2023-04-15T14:39:41;17.40;46.30
43651;DHT22;29247;50.944;5.382;2023-04-15T14:42:09;17.40;46.70
43651;DHT22;29247;50.944;5.382;2023-04-15T14:44:37;17.30;46.30
43651;DHT22;29247;50.944;5.382;2023-04-15T14:47:04;17.20;45.80
43651;DHT22;29247;50.944;5.382;2023-04-15T14:49:40;17.20;46.20
43651;DHT22;29247;50.944;5.382;2023-04-15T14:52:06;17.10;46.50
43651;DHT22;29247;50.944;5.382;2023-04-15T14:54:32;17.10;46.20
43651;DHT22;29247;50.944;5.382;2023-04-15T14:56:57;17.00;46.40
43651;DHT22;29247;50.944;5.382;2023-04-15T14:59:26;16.90;46.50
43651;DHT22;29247;50.944;5.382;2023-04-15T15:01:52;16.90;46.80
43651;DHT22;29247;50.944;5.382;2023-04-15T15:04:18;16.90;47.00
43651;DHT22;29247;50.944;5.382;2023-04-15T15:06:44;16.90;46.60
43651;DHT22;29247;50.944;5.382;2023-04-15T15:09:10;16.80;47.10
43651;DHT22;29247;50.944;5.382;2023-04-15T15:11:39;16.90;47.80
43651;DHT22;29247;50.944;5.382;2023-04-15T15:14:07;16.90;47.90
43651;DHT22;29247;50.944;5.382;2023-04-15T15:16:32;16.90;48.30
43651;DHT22;29247;50.944;5.382;2023-04-15T15:18:58;16.90;48.30
43651;DHT22;29247;50.944;5.382;2023-04-15T15:21:24;16.90;48.80
43651;DHT22;29247;50.944;5.382;2023-04-15T15:23:51;17.00;48.90
43651;DHT22;29247;50.944;5.382;2023-04-15T15:26:17;16.90;48.40
43651;DHT22;29247;50.944;5.382;2023-04-15T15:28:43;16.90;48.40
43651;DHT22;29247;50.944;5.382;2023-04-15T15:31:13;16.90;48.50
43651;DHT22;29247;50.944;5.382;2023-04-15T15:33:38;16.90;48.80
43651;DHT22;29247;50.944;5.382;2023-04-15T15:36:06;16.80;48.80
43651;DHT22;29247;50.944;5.382;2023-04-15T15:38:33;16.90;48.50
43651;DHT22;29247;50.944;5.382;2023-04-15T15:41:00;16.90;48.20
43651;DHT22;29247;50.944;5.382;2023-04-15T15:43:25;16.90;48.30
43651;DHT22;29247;50.944;5.382;2023-04-15T15:45:51;16.80;48.00
43651;DHT22;29247;50.944;5.382;2023-04-15T15:48:22;16.80;48.10
43651;DHT22;29247;50.944;5.382;2023-04-15T15:50:51;16.80;48.10
43651;DHT22;29247;50.944;5.382;2023-04-15T15:53:17;16.70;48.30
43651;DHT22;29247;50.944;5.382;2023-04-15T15:55:46;16.70;48.40